sensor_id;sensor_type;location;lat;lon;timestamp;temperature;humidity
46758;DHT22;32509;47.750;-3.396;2022-11-15T08:41:36;20.50;99.90
46758;DHT22;32509;47.750;-3.396;2022-11-15T08:44:02;20.50;99.90
46758;DHT22;32509;47.750;-3.396;2022-11-15T08:46:28;20.40;99.90
46758;DHT22;32509;47.750;-3.396;2022-11-15T08:48:54;20.30;99.90
46758;DHT22;32509;47.750;-3.396;2022-11-15T08:51:20;20.20;99.90
46758;DHT22;32509;47.750;-3.396;2022-11-15T08:53:45;20.20;99.90
46758;DHT22;32509;47.750;-3.396;2022-11-15T08:56:13;20.20;99.90
46758;DHT22;32509;47.750;-3.396;2022-11-15T08:58:40;20.20;99.90
46758;DHT22;32509;47.750;-3.396;2022-11-15T09:01:06;20.10;99.90
46758;DHT22;32509;47.750;-3.396;2022-11-15T09:03:32;20.20;99.90
46758;DHT22;32509;47.750;-3.396;2022-11-15T09:05:59;20.20;99.90
46758;DHT22;32509;47.750;-3.396;2022-11-15T09:08:28;20.30;99.90
46758;DHT22;32509;47.750;-3.396;2022-11-15T09:10:54;20.30;99.90
46758;DHT22;32509;47.750;-3.396;2022-11-15T09:13:20;20.30;99.90
46758;DHT22;32509;47.750;-3.396;2022-11-15T09:15:46;20.30;99.90
46758;DHT22;32509;47.750;-3.396;2022-11-15T09:18:11;20.40;99.90
46758;DHT22;32509;47.750;-3.396;2022-11-15T09:20:37;20.40;99.90
46758;DHT22;32509;47.750;-3.396;2022-11-15T09:23:04;20.40;99.90
46758;DHT22;32509;47.750;-3.396;2022-11-15T09:25:30;20.50;99.90
46758;DHT22;32509;47.750;-3.396;2022-11-15T09:27:56;20.50;99.90
46758;DHT22;32509;47.750;-3.396;2022-11-15T09:30:23;20.50;99.90
46758;DHT22;32509;47.750;-3.396;2022-11-15T09:32:49;20.50;99.90
46758;DHT22;32509;47.750;-3.396;2022-11-15T09:35:14;20.50;99.90
46758;DHT22;32509;47.750;-3.396;2022-11-15T09:37:40;20.50;99.90
46758;DHT22;32509;47.750;-3.396;2022-11-15T09:40:13;20.60;99.90
46758;DHT22;32509;47.750;-3.396;2022-11-15T09:42:51;20.60;99.90
46758;DHT22;32509;47.750;-3.396;2022-11-15T09:59:17;19.40;99.90
46758;DHT22;32509;47.750;-3.396;2022-11-15T10:01:56;18.40;99.90
46758;DHT22;32509;47.750;-3.396;2022-11-15T10:04:25;17.80;99.90
46758;DHT22;32509;47.750;-3.396;2022-11-15T10:07:06;17.40;99.90
46758;DHT22;32509;47.750;-3.396;2022-11-15T10:09:47;17.10;99.90
46758;DHT22;32509;47.750;-3.396;2022-11-15T10:12:15;16.90;99.90
46758;DHT22;32509;47.750;-3.396;2022-11-15T10:14:42;16.70;99.90
46758;DHT22;32509;47.750;-3.396;2022-11-15T10:17:27;16.60;99.90
46758;DHT22;32509;47.750;-3.396;2022-11-15T10:27:35;16.20;99.90
46758;DHT22;32509;47.750;-3.396;2022-11-15T10:30:01;16.20;99.90
46758;DHT22;32509;47.750;-3.396;2022-11-15T10:32:30;16.10;99.90
46758;DHT22;32509;47.750;-3.396;2022-11-15T10:34:58;16.10;99.90
46758;DHT22;32509;47.750;-3.396;2022-11-15T10:37:31;16.10;99.90
46758;DHT22;32509;47.750;-3.396;2022-11-15T10:40:16;16.10;99.90
46758;DHT22;32509;47.750;-3.396;2022-11-15T10:42:42;16.00;99.90
46758;DHT22;32509;47.750;-3.396;2022-11-15T10:45:30;16.00;99.90
46758;DHT22;32509;47.750;-3.396;2022-11-15T10:50:38;15.90;99.90
46758;DHT22;32509;47.750;-3.396;2022-11-15T10:55:47;15.90;99.90
46758;DHT22;32509;47.750;-3.396;2022-11-15T10:58:36;15.90;99.90
46758;DHT22;32509;47.750;-3.396;2022-11-15T11:03:40;15.90;99.90
46758;DHT22;32509;47.750;-3.396;2022-11-15T11:06:14;15.90;99.90
46758;DHT22;32509;47.750;-3.396;2022-11-15T11:08:57;15.90;99.90
46758;DHT22;32509;47.750;-3.396;2022-11-15T11:11:23;15.90;99.90
46758;DHT22;32509;47.750;-3.396;2022-11-15T11:13:49;15.90;99.90
46758;DHT22;32509;47.750;-3.396;2022-11-15T11:25:17;15.90;99.90
46758;DHT22;32509;47.750;-3.396;2022-11-15T11:30:21;15.80;99.90
46758;DHT22;32509;47.750;-3.396;2022-11-15T11:33:09;15.80;99.90
46758;DHT22;32509;47.750;-3.396;2022-11-15T11:36:03;15.80;99.90
46758;DHT22;32509;47.750;-3.396;2022-11-15T11:49:25;15.70;99.90
46758;DHT22;32509;47.750;-3.396;2022-11-15T11:54:57;15.70;99.90
46758;DHT22;32509;47.750;-3.396;2022-11-15T11:57:50;15.70;99.90
46758;DHT22;32509;47.750;-3.396;2022-11-15T12:00:21;15.70;99.90
46758;DHT22;32509;47.750;-3.396;2022-11-15T12:03:10;15.70;99.90
46758;DHT22;32509;47.750;-3.396;2022-11-15T12:05:50;15.70;99.90
46758;DHT22;32509;47.750;-3.396;2022-11-15T12:08:33;15.70;99.90
46758;DHT22;32509;47.750;-3.396;2022-11-15T12:13:58;15.70;99.90
46758;DHT22;32509;47.750;-3.396;2022-11-15T12:16:28;15.70;99.90
46758;DHT22;32509;47.750;-3.396;2022-11-15T12:18:56;15.70;99.90
46758;DHT22;32509;47.750;-3.396;2022-11-15T12:21:39;15.70;99.90
46758;DHT22;32509;47.750;-3.396;2022-11-15T12:24:13;15.70;99.90
46758;DHT22;32509;47.750;-3.396;2022-11-15T12:27:05;15.70;99.90
46758;DHT22;32509;47.750;-3.396;2022-11-15T12:29:39;15.70;99.90
46758;DHT22;32509;47.750;-3.396;2022-11-15T12:34:49;15.60;99.90
46758;DHT22;32509;47.750;-3.396;2022-11-15T12:42:43;15.60;99.90
46758;DHT22;32509;47.750;-3.396;2022-11-15T12:45:29;15.60;99.90
46758;DHT22;32509;47.750;-3.396;2022-11-15T12:58:46;15.60;99.90
46758;DHT22;32509;47.750;-3.396;2022-11-15T13:06:49;15.60;99.90
46758;DHT22;32509;47.750;-3.396;2022-11-15T13:14:44;15.50;99.90
46758;DHT22;32509;47.750;-3.396;2022-11-15T13:17:20;15.50;99.90
46758;DHT22;32509;47.750;-3.396;2022-11-15T13:22:46;15.40;99.90
46758;DHT22;32509;47.750;-3.396;2022-11-15T13:30:35;15.40;99.90
46758;DHT22;32509;47.750;-3.396;2022-11-15T13:33:13;15.40;99.90
46758;DHT22;32509;47.750;-3.396;2022-11-15T13:35:41;15.40;99.90
46758;DHT22;32509;47.750;-3.396;2022-11-15T13:38:31;15.40;99.90
46758;DHT22;32509;47.750;-3.396;2022-11-15T13:40:58;15.40;99.90
46758;DHT22;32509;47.750;-3.396;2022-11-15T13:43:37;15.40;99.90
46758;DHT22;32509;47.750;-3.396;2022-11-15T13:46:27;15.40;99.90
46758;DHT22;32509;47.750;-3.396;2022-11-15T13:49:04;15.40;99.90
46758;DHT22;32509;47.750;-3.396;2022-11-15T13:51:39;15.40;99.90
46758;DHT22;32509;47.750;-3.396;2022-11-15T13:54:29;15.30;99.90
46758;DHT22;32509;47.750;-3.396;2022-11-15T13:57:08;15.30;99.90
46758;DHT22;32509;47.750;-3.396;2022-11-15T13:59:47;15.30;99.90
46758;DHT22;32509;47.750;-3.396;2022-11-15T14:02:18;15.30;99.90
46758;DHT22;32509;47.750;-3.396;2022-11-15T14:04:53;15.30;99.90
46758;DHT22;32509;47.750;-3.396;2022-11-15T14:07:22;15.30;99.90
46758;DHT22;32509;47.750;-3.396;2022-11-15T14:09:49;15.30;99.90
46758;DHT22;32509;47.750;-3.396;2022-11-15T14:12:30;15.30;99.90
46758;DHT22;32509;47.750;-3.396;2022-11-15T14:14:57;15.30;99.90
46758;DHT22;32509;47.750;-3.396;2022-11-15T14:19:56;15.20;99.90
46758;DHT22;32509;47.750;-3.396;2022-11-15T14:22:28;15.20;99.90
46758;DHT22;32509;47.750;-3.396;2022-11-15T14:25:27;15.30;99.90
46758;DHT22;32509;47.750;-3.396;2022-11-15T14:30:38;15.20;99.90
46758;DHT22;32509;47.750;-3.396;2022-11-15T14:33:19;15.20;99.90
46758;DHT22;32509;47.750;-3.396;2022-11-15T14:35:45;15.30;99.90
46758;DHT22;32509;47.750;-3.396;2022-11-15T14:38:11;15.20;99.90
46758;DHT22;32509;47.750;-3.396;2022-11-15T14:40:37;15.20;99.90
46758;DHT22;32509;47.750;-3.396;2022-11-15T14:43:03;15.20;99.90
46758;DHT22;32509;47.750;-3.396;2022-11-15T14:45:29;15.20;99.90
46758;DHT22;32509;47.750;-3.396;2022-11-15T14:47:54;15.20;99.90
46758;DHT22;32509;47.750;-3.396;2022-11-15T14:50:21;15.20;99.90
46758;DHT22;32509;47.750;-3.396;2022-11-15T14:52:48;15.20;99.90
46758;DHT22;32509;47.750;-3.396;2022-11-15T14:57:44;15.20;99.90
46758;DHT22;32509;47.750;-3.396;2022-11-15T15:00:11;15.20;99.90
46758;DHT22;32509;47.750;-3.396;2022-11-15T15:02:37;15.20;99.90
46758;DHT22;32509;47.750;-3.396;2022-11-15T15:07:41;15.10;99.90
46758;DHT22;32509;47.750;-3.396;2022-11-15T15:10:08;15.20;99.90
46758;DHT22;32509;47.750;-3.396;2022-11-15T15:12:34;15.20;99.90
46758;DHT22;32509;47.750;-3.396;2022-11-15T15:14:59;15.10;99.90
46758;DHT22;32509;47.750;-3.396;2022-11-15T15:17:25;15.20;99.90
46758;DHT22;32509;47.750;-3.396;2022-11-15T15:19:51;15.20;99.90
46758;DHT22;32509;47.750;-3.396;2022-11-15T15:22:18;15.20;99.90
46758;DHT22;32509;47.750;-3.396;2022-11-15T15:24:45;15.20;99.90
46758;DHT22;32509;47.750;-3.396;2022-11-15T15:27:12;15.20;99.90
46758;DHT22;32509;47.750;-3.396;2022-11-15T15:29:39;15.20;99.90
46758;DHT22;32509;47.750;-3.396;2022-11-15T15:32:05;15.20;99.90
46758;DHT22;32509;47.750;-3.396;2022-11-15T15:34:32;15.20;99.90
46758;DHT22;32509;47.750;-3.396;2022-11-15T15:37:22;15.10;99.90
46758;DHT22;32509;47.750;-3.396;2022-11-15T15:39:53;15.10;99.90
46758;DHT22;32509;47.750;-3.396;2022-11-15T15:42:20;15.10;99.90
46758;DHT22;32509;47.750;-3.396;2022-11-15T15:44:50;15.10;99.90
46758;DHT22;32509;47.750;-3.396;2022-11-15T15:47:23;15.10;99.90
46758;DHT22;32509;47.750;-3.396;2022-11-15T15:49:49;15.10;99.90
46758;DHT22;32509;47.750;-3.396;2022-11-15T15:52:16;15.00;99.90
46758;DHT22;32509;47.750;-3.396;2022-11-15T15:54:42;15.00;99.90
46758;DHT22;32509;47.750;-3.396;2022-11-15T15:57:10;15.00;99.90
46758;DHT22;32509;47.750;-3.396;2022-11-15T15:59:37;15.00;99.90
46758;DHT22;32509;47.750;-3.396;2022-11-15T16:02:03;15.00;99.90
46758;DHT22;32509;47.750;-3.396;2022-11-15T16:04:29;15.00;99.90
46758;DHT22;32509;47.750;-3.396;2022-11-15T16:06:59;15.00;99.90
46758;DHT22;32509;47.750;-3.396;2022-11-15T16:09:25;14.90;99.90
46758;DHT22;32509;47.750;-3.396;2022-11-15T16:12:09;14.90;99.90
46758;DHT22;32509;47.750;-3.396;2022-11-15T16:14:35;14.90;99.90
46758;DHT22;32509;47.750;-3.396;2022-11-15T16:17:01;14.90;99.90
46758;DHT22;32509;47.750;-3.396;2022-11-15T16:19:27;14.90;99.90
46758;DHT22;32509;47.750;-3.396;2022-11-15T16:21:53;14.90;99.90
46758;DHT22;32509;47.750;-3.396;2022-11-15T16:24:20;14.90;99.90
46758;DHT22;32509;47.750;-3.396;2022-11-15T16:26:47;14.90;99.90
46758;DHT22;32509;47.750;-3.396;2022-11-15T16:29:13;14.90;99.90
46758;DHT22;32509;47.750;-3.396;2022-11-15T16:31:39;14.90;99.90
46758;DHT22;32509;47.750;-3.396;2022-11-15T16:34:05;14.90;99.90
46758;DHT22;32509;47.750;-3.396;2022-11-15T16:36:33;14.90;99.90
46758;DHT22;32509;47.750;-3.396;2022-11-15T16:39:00;14.90;99.90
46758;DHT22;32509;47.750;-3.396;2022-11-15T16:41:29;14.90;99.90
46758;DHT22;32509;47.750;-3.396;2022-11-15T16:43:55;14.80;99.90
46758;DHT22;32509;47.750;-3.396;2022-11-15T16:46:25;14.80;99.90
46758;DHT22;32509;47.750;-3.396;2022-11-15T16:48:51;14.90;99.90
46758;DHT22;32509;47.750;-3.396;2022-11-15T16:51:19;14.90;99.90
46758;DHT22;32509;47.750;-3.396;2022-11-15T16:53:45;14.90;99.90
46758;DHT22;32509;47.750;-3.396;2022-11-15T16:56:24;14.80;99.90
46758;DHT22;32509;47.750;-3.396;2022-11-15T16:58:52;14.80;99.90
46758;DHT22;32509;47.750;-3.396;2022-11-15T17:01:41;14.90;99.90
46758;DHT22;32509;47.750;-3.396;2022-11-15T17:04:12;14.90;99.90
46758;DHT22;32509;47.750;-3.396;2022-11-15T17:06:39;14.90;99.90
46758;DHT22;32509;47.750;-3.396;2022-11-15T17:09:06;14.80;99.90
46758;DHT22;32509;47.750;-3.396;2022-11-15T17:11:32;14.90;99.90
46758;DHT22;32509;47.750;-3.396;2022-11-15T17:13:58;14.80;99.90
46758;DHT22;32509;47.750;-3.396;2022-11-15T17:16:24;14.80;99.90
46758;DHT22;32509;47.750;-3.396;2022-11-15T17:18:51;14.80;99.90
46758;DHT22;32509;47.750;-3.396;2022-11-15T17:21:19;14.80;99.90
46758;DHT22;32509;47.750;-3.396;2022-11-15T17:23:45;14.80;99.90
46758;DHT22;32509;47.750;-3.396;2022-11-15T17:26:12;14.80;99.90
46758;DHT22;32509;47.750;-3.396;2022-11-15T17:28:39;14.80;99.90
46758;DHT22;32509;47.750;-3.396;2022-11-15T17:31:09;14.80;99.90
46758;DHT22;32509;47.750;-3.396;2022-11-15T17:33:36;14.70;99.90
46758;DHT22;32509;47.750;-3.396;2022-11-15T17:36:05;14.70;99.90
46758;DHT22;32509;47.750;-3.396;2022-11-15T17:38:32;14.70;99.90
46758;DHT22;32509;47.750;-3.396;2022-11-15T17:41:01;14.70;99.90
46758;DHT22;32509;47.750;-3.396;2022-11-15T17:43:29;14.70;99.90
46758;DHT22;32509;47.750;-3.396;2022-11-15T17:45:55;14.70;99.90
46758;DHT22;32509;47.750;-3.396;2022-11-15T17:48:20;14.70;99.90
46758;DHT22;32509;47.750;-3.396;2022-11-15T17:51:01;14.70;99.90
46758;DHT22;32509;47.750;-3.396;2022-11-15T17:53:31;14.70;99.90
46758;DHT22;32509;47.750;-3.396;2022-11-15T17:56:00;14.70;99.90
46758;DHT22;32509;47.750;-3.396;2022-11-15T17:58:26;14.70;99.90
46758;DHT22;32509;47.750;-3.396;2022-11-15T18:00:52;14.70;99.90
46758;DHT22;32509;47.750;-3.396;2022-11-15T18:03:18;14.70;99.90
46758;DHT22;32509;47.750;-3.396;2022-11-15T18:05:43;14.70;99.90
46758;DHT22;32509;47.750;-3.396;2022-11-15T18:08:10;14.70;99.90
46758;DHT22;32509;47.750;-3.396;2022-11-15T18:10:37;14.70;99.90
46758;DHT22;32509;47.750;-3.396;2022-11-15T18:13:03;14.70;99.90
46758;DHT22;32509;47.750;-3.396;2022-11-15T18:15:28;14.70;99.90
46758;DHT22;32509;47.750;-3.396;2022-11-15T18:17:54;14.70;99.90
46758;DHT22;32509;47.750;-3.396;2022-11-15T18:20:20;14.70;99.90
46758;DHT22;32509;47.750;-3.396;2022-11-15T18:22:46;14.70;99.90
46758;DHT22;32509;47.750;-3.396;2022-11-15T18:25:11;14.70;99.90
46758;DHT22;32509;47.750;-3.396;2022-11-15T18:27:40;14.70;99.90
46758;DHT22;32509;47.750;-3.396;2022-11-15T18:30:07;14.70;99.90
46758;DHT22;32509;47.750;-3.396;2022-11-15T18:32:33;14.70;99.90
46758;DHT22;32509;47.750;-3.396;2022-11-15T18:34:58;14.70;99.90
46758;DHT22;32509;47.750;-3.396;2022-11-15T18:37:24;14.70;99.90
46758;DHT22;32509;47.750;-3.396;2022-11-15T18:39:50;14.60;99.90
46758;DHT22;32509;47.750;-3.396;2022-11-15T18:42:16;14.60;99.90
46758;DHT22;32509;47.750;-3.396;2022-11-15T18:44:42;14.60;99.90
46758;DHT22;32509;47.750;-3.396;2022-11-15T18:47:07;14.60;99.90
46758;DHT22;32509;47.750;-3.396;2022-11-15T18:49:33;14.60;99.90
46758;DHT22;32509;47.750;-3.396;2022-11-15T18:51:59;14.60;99.90
46758;DHT22;32509;47.750;-3.396;2022-11-15T18:54:25;14.50;99.90
46758;DHT22;32509;47.750;-3.396;2022-11-15T18:56:50;14.60;99.90
46758;DHT22;32509;47.750;-3.396;2022-11-15T18:59:16;14.60;99.90
46758;DHT22;32509;47.750;-3.396;2022-11-15T19:01:44;14.50;99.90
46758;DHT22;32509;47.750;-3.396;2022-11-15T19:04:19;14.60;99.90
46758;DHT22;32509;47.750;-3.396;2022-11-15T19:06:48;14.60;99.90
46758;DHT22;32509;47.750;-3.396;2022-11-15T19:09:16;14.60;99.90
46758;DHT22;32509;47.750;-3.396;2022-11-15T19:11:43;14.60;99.90
46758;DHT22;32509;47.750;-3.396;2022-11-15T19:14:12;14.60;99.90
46758;DHT22;32509;47.750;-3.396;2022-11-15T19:16:46;14.60;99.90
46758;DHT22;32509;47.750;-3.396;2022-11-15T19:19:19;14.60;99.90
46758;DHT22;32509;47.750;-3.396;2022-11-15T19:21:45;14.60;99.90
46758;DHT22;32509;47.750;-3.396;2022-11-15T19:24:11;14.60;99.90
46758;DHT22;32509;47.750;-3.396;2022-11-15T19:26:37;14.60;99.90
46758;DHT22;32509;47.750;-3.396;2022-11-15T19:29:04;14.60;99.90
46758;DHT22;32509;47.750;-3.396;2022-11-15T19:31:31;14.60;99.90
46758;DHT22;32509;47.750;-3.396;2022-11-15T19:34:02;14.60;99.90
46758;DHT22;32509;47.750;-3.396;2022-11-15T19:36:31;14.60;99.90
46758;DHT22;32509;47.750;-3.396;2022-11-15T19:38:59;14.60;99.90
46758;DHT22;32509;47.750;-3.396;2022-11-15T19:41:25;14.60;99.90
46758;DHT22;32509;47.750;-3.396;2022-11-15T19:43:51;14.60;99.90
46758;DHT22;32509;47.750;-3.396;2022-11-15T19:46:21;14.60;99.90
46758;DHT22;32509;47.750;-3.396;2022-11-15T19:48:49;14.60;99.90
46758;DHT22;32509;47.750;-3.396;2022-11-15T19:51:20;14.60;99.90
46758;DHT22;32509;47.750;-3.396;2022-11-15T19:53:51;14.60;99.90
46758;DHT22;32509;47.750;-3.396;2022-11-15T19:56:18;14.60;99.90
46758;DHT22;32509;47.750;-3.396;2022-11-15T19:58:45;14.60;99.90
46758;DHT22;32509;47.750;-3.396;2022-11-15T20:01:17;14.60;99.90
46758;DHT22;32509;47.750;-3.396;2022-11-15T20:03:44;14.50;99.90
46758;DHT22;32509;47.750;-3.396;2022-11-15T20:06:12;14.50;99.90
46758;DHT22;32509;47.750;-3.396;2022-11-15T20:08:40;14.60;99.90
46758;DHT22;32509;47.750;-3.396;2022-11-15T20:11:06;14.50;99.90
46758;DHT22;32509;47.750;-3.396;2022-11-15T20:13:32;14.60;99.90
46758;DHT22;32509;47.750;-3.396;2022-11-15T20:15:58;14.60;99.90
46758;DHT22;32509;47.750;-3.396;2022-11-15T20:18:26;14.60;99.90
46758;DHT22;32509;47.750;-3.396;2022-11-15T20:20:51;14.50;99.90
46758;DHT22;32509;47.750;-3.396;2022-11-15T20:23:17;14.50;99.90
46758;DHT22;32509;47.750;-3.396;2022-11-15T20:25:44;14.60;99.90
46758;DHT22;32509;47.750;-3.396;2022-11-15T20:28:21;14.50;99.90
46758;DHT22;32509;47.750;-3.396;2022-11-15T20:30:51;14.60;99.90
46758;DHT22;32509;47.750;-3.396;2022-11-15T20:33:17;14.50;99.90
46758;DHT22;32509;47.750;-3.396;2022-11-15T20:35:43;14.60;99.90
46758;DHT22;32509;47.750;-3.396;2022-11-15T20:38:09;14.50;99.90
46758;DHT22;32509;47.750;-3.396;2022-11-15T20:40:36;14.50;99.90
46758;DHT22;32509;47.750;-3.396;2022-11-15T20:43:01;14.50;99.90
46758;DHT22;32509;47.750;-3.396;2022-11-15T20:45:28;14.50;99.90
46758;DHT22;32509;47.750;-3.396;2022-11-15T20:47:55;14.50;99.90
46758;DHT22;32509;47.750;-3.396;2022-11-15T20:50:22;14.50;99.90
46758;DHT22;32509;47.750;-3.396;2022-11-15T20:52:48;14.50;99.90
46758;DHT22;32509;47.750;-3.396;2022-11-15T20:55:13;14.60;99.90
46758;DHT22;32509;47.750;-3.396;2022-11-15T20:57:39;14.50;99.90
46758;DHT22;32509;47.750;-3.396;2022-11-15T21:00:05;14.50;99.90
46758;DHT22;32509;47.750;-3.396;2022-11-15T21:02:32;14.50;99.90
46758;DHT22;32509;47.750;-3.396;2022-11-15T21:04:57;14.50;99.90
46758;DHT22;32509;47.750;-3.396;2022-11-15T21:07:24;14.50;99.90
46758;DHT22;32509;47.750;-3.396;2022-11-15T21:09:49;14.50;99.90
46758;DHT22;32509;47.750;-3.396;2022-11-15T21:12:33;14.50;99.90
46758;DHT22;32509;47.750;-3.396;2022-11-15T21:14:59;14.50;99.90
46758;DHT22;32509;47.750;-3.396;2022-11-15T21:17:25;14.50;99.90
46758;DHT22;32509;47.750;-3.396;2022-11-15T21:19:51;14.50;99.90
46758;DHT22;32509;47.750;-3.396;2022-11-15T21:22:16;14.50;99.90
46758;DHT22;32509;47.750;-3.396;2022-11-15T21:24:42;14.50;99.90
46758;DHT22;32509;47.750;-3.396;2022-11-15T21:27:08;14.50;99.90
46758;DHT22;32509;47.750;-3.396;2022-11-15T21:29:34;14.50;99.90
46758;DHT22;32509;47.750;-3.396;2022-11-15T21:32:05;14.50;99.90
46758;DHT22;32509;47.750;-3.396;2022-11-15T21:34:31;14.50;99.90
46758;DHT22;32509;47.750;-3.396;2022-11-15T21:36:56;14.50;99.90
46758;DHT22;32509;47.750;-3.396;2022-11-15T21:39:23;14.50;99.90
46758;DHT22;32509;47.750;-3.396;2022-11-15T21:41:49;14.50;99.90
46758;DHT22;32509;47.750;-3.396;2022-11-15T21:44:14;14.50;99.90
46758;DHT22;32509;47.750;-3.396;2022-11-15T21:46:40;14.50;99.90
46758;DHT22;32509;47.750;-3.396;2022-11-15T21:49:06;14.60;99.90
46758;DHT22;32509;47.750;-3.396;2022-11-15T21:51:32;14.50;99.90
46758;DHT22;32509;47.750;-3.396;2022-11-15T21:53:59;14.50;99.90
46758;DHT22;32509;47.750;-3.396;2022-11-15T21:56:25;14.50;99.90
46758;DHT22;32509;47.750;-3.396;2022-11-15T21:58:52;14.50;99.90
46758;DHT22;32509;47.750;-3.396;2022-11-15T22:01:18;14.50;99.90
46758;DHT22;32509;47.750;-3.396;2022-11-15T22:04:02;14.50;99.90
46758;DHT22;32509;47.750;-3.396;2022-11-15T22:06:29;14.50;99.90
46758;DHT22;32509;47.750;-3.396;2022-11-15T22:08:55;14.50;99.90
46758;DHT22;32509;47.750;-3.396;2022-11-15T22:11:20;14.50;99.90
46758;DHT22;32509;47.750;-3.396;2022-11-15T22:13:46;14.50;99.90
46758;DHT22;32509;47.750;-3.396;2022-11-15T22:16:12;14.50;99.90
46758;DHT22;32509;47.750;-3.396;2022-11-15T22:18:38;14.50;99.90
46758;DHT22;32509;47.750;-3.396;2022-11-15T22:21:04;14.50;99.90
46758;DHT22;32509;47.750;-3.396;2022-11-15T22:23:32;14.50;99.90
46758;DHT22;32509;47.750;-3.396;2022-11-15T22:25:58;14.50;99.90
46758;DHT22;32509;47.750;-3.396;2022-11-15T22:28:24;14.50;99.90
46758;DHT22;32509;47.750;-3.396;2022-11-15T22:30:53;14.50;99.90
46758;DHT22;32509;47.750;-3.396;2022-11-15T22:33:22;14.50;99.90
46758;DHT22;32509;47.750;-3.396;2022-11-15T22:35:48;14.40;99.90
46758;DHT22;32509;47.750;-3.396;2022-11-15T22:38:15;14.50;99.90
46758;DHT22;32509;47.750;-3.396;2022-11-15T22:40:41;14.50;99.90
46758;DHT22;32509;47.750;-3.396;2022-11-15T22:43:08;14.50;99.90
46758;DHT22;32509;47.750;-3.396;2022-11-15T22:45:33;14.50;99.90
46758;DHT22;32509;47.750;-3.396;2022-11-15T22:47:59;14.50;99.90
46758;DHT22;32509;47.750;-3.396;2022-11-15T22:50:25;14.50;99.90
46758;DHT22;32509;47.750;-3.396;2022-11-15T22:52:51;14.50;99.90
46758;DHT22;32509;47.750;-3.396;2022-11-15T22:55:17;14.50;99.90
46758;DHT22;32509;47.750;-3.396;2022-11-15T22:57:42;14.50;99.90
46758;DHT22;32509;47.750;-3.396;2022-11-15T23:00:12;14.50;99.90
46758;DHT22;32509;47.750;-3.396;2022-11-15T23:02:39;14.50;99.90
46758;DHT22;32509;47.750;-3.396;2022-11-15T23:05:05;14.50;99.90
46758;DHT22;32509;47.750;-3.396;2022-11-15T23:07:32;14.50;99.90
46758;DHT22;32509;47.750;-3.396;2022-11-15T23:09:58;14.50;99.90
46758;DHT22;32509;47.750;-3.396;2022-11-15T23:12:43;14.50;99.90
46758;DHT22;32509;47.750;-3.396;2022-11-15T23:15:27;14.50;99.90
46758;DHT22;32509;47.750;-3.396;2022-11-15T23:18:12;14.50;99.90
46758;DHT22;32509;47.750;-3.396;2022-11-15T23:20:38;14.50;99.90
46758;DHT22;32509;47.750;-3.396;2022-11-15T23:23:04;14.50;99.90
46758;DHT22;32509;47.750;-3.396;2022-11-15T23:25:29;14.50;99.90
46758;DHT22;32509;47.750;-3.396;2022-11-15T23:27:55;14.50;99.90
46758;DHT22;32509;47.750;-3.396;2022-11-15T23:30:21;14.50;99.90
46758;DHT22;32509;47.750;-3.396;2022-11-15T23:33:05;14.50;99.90
46758;DHT22;32509;47.750;-3.396;2022-11-15T23:35:53;14.50;99.90
46758;DHT22;32509;47.750;-3.396;2022-11-15T23:38:19;14.50;99.90
46758;DHT22;32509;47.750;-3.396;2022-11-15T23:40:50;14.50;99.90
46758;DHT22;32509;47.750;-3.396;2022-11-15T23:43:16;14.50;99.90
46758;DHT22;32509;47.750;-3.396;2022-11-15T23:45:43;14.50;99.90
46758;DHT22;32509;47.750;-3.396;2022-11-15T23:48:09;14.50;99.90
46758;DHT22;32509;47.750;-3.396;2022-11-15T23:50:35;14.50;99.90
46758;DHT22;32509;47.750;-3.396;2022-11-15T23:53:01;14.50;99.90
46758;DHT22;32509;47.750;-3.396;2022-11-15T23:55:27;14.50;99.90
46758;DHT22;32509;47.750;-3.396;2022-11-15T23:57:53;14.50;99.90
